sensor_id;sensor_type;location;lat;lon;timestamp;pressure;altitude;pressure_sealevel;temperature;humidity
21728;BME280;11026;50.560;17.852;2023-04-06T00:02:11;100053.06;;;-2.65;100.00
21728;BME280;11026;50.560;17.852;2023-04-06T00:04:38;100068.53;;;-2.72;100.00
21728;BME280;11026;50.560;17.852;2023-04-06T00:07:05;100064.81;;;-2.86;100.00
21728;BME280;11026;50.560;17.852;2023-04-06T00:09:33;100068.75;;;-3.06;100.00
21728;BME280;11026;50.560;17.852;2023-04-06T00:12:02;100066.84;;;-3.15;100.00
21728;BME280;11026;50.560;17.852;2023-04-06T00:14:31;100063.78;;;-2.94;100.00
21728;BME280;11026;50.560;17.852;2023-04-06T00:16:59;100061.53;;;-2.77;100.00
21728;BME280;11026;50.560;17.852;2023-04-06T00:19:28;100056.66;;;-2.59;100.00
21728;BME280;11026;50.560;17.852;2023-04-06T00:21:55;100059.13;;;-2.66;100.00
21728;BME280;11026;50.560;17.852;2023-04-06T00:24:24;100059.03;;;-2.73;100.00
21728;BME280;11026;50.560;17.852;2023-04-06T00:26:51;100052.53;;;-2.48;100.00
21728;BME280;11026;50.560;17.852;2023-04-06T00:29:19;100054.41;;;-2.39;100.00
21728;BME280;11026;50.560;17.852;2023-04-06T00:31:47;100053.41;;;-2.45;100.00
21728;BME280;11026;50.560;17.852;2023-04-06T00:34:16;100055.00;;;-2.57;100.00
21728;BME280;11026;50.560;17.852;2023-04-06T00:36:44;100053.25;;;-2.56;100.00
21728;BME280;11026;50.560;17.852;2023-04-06T00:39:12;100057.44;;;-2.64;100.00
21728;BME280;11026;50.560;17.852;2023-04-06T00:41:45;100053.84;;;-2.71;100.00
21728;BME280;11026;50.560;17.852;2023-04-06T00:44:15;100047.66;;;-2.81;100.00
21728;BME280;11026;50.560;17.852;2023-04-06T00:46:45;100049.13;;;-2.93;100.00
21728;BME280;11026;50.560;17.852;2023-04-06T00:49:12;100048.94;;;-3.04;100.00
21728;BME280;11026;50.560;17.852;2023-04-06T00:51:41;100057.91;;;-3.31;100.00
21728;BME280;11026;50.560;17.852;2023-04-06T00:54:15;100053.59;;;-3.32;100.00
21728;BME280;11026;50.560;17.852;2023-04-06T00:56:43;100048.28;;;-3.38;100.00
21728;BME280;11026;50.560;17.852;2023-04-06T00:59:11;100037.97;;;-2.91;100.00
21728;BME280;11026;50.560;17.852;2023-04-06T01:01:39;100051.03;;;-2.85;100.00
21728;BME280;11026;50.560;17.852;2023-04-06T01:04:08;100054.28;;;-2.97;100.00
21728;BME280;11026;50.560;17.852;2023-04-06T01:06:35;100053.38;;;-2.97;100.00
21728;BME280;11026;50.560;17.852;2023-04-06T01:09:05;100049.75;;;-3.07;100.00
21728;BME280;11026;50.560;17.852;2023-04-06T01:11:33;100054.00;;;-3.10;100.00
21728;BME280;11026;50.560;17.852;2023-04-06T01:14:00;100047.16;;;-3.07;100.00
21728;BME280;11026;50.560;17.852;2023-04-06T01:16:29;100047.09;;;-3.11;100.00
21728;BME280;11026;50.560;17.852;2023-04-06T01:19:09;100045.34;;;-3.12;100.00
21728;BME280;11026;50.560;17.852;2023-04-06T01:21:38;100050.53;;;-3.11;100.00
21728;BME280;11026;50.560;17.852;2023-04-06T01:24:07;100046.28;;;-3.07;100.00
21728;BME280;11026;50.560;17.852;2023-04-06T01:26:35;100055.56;;;-3.18;100.00
21728;BME280;11026;50.560;17.852;2023-04-06T01:29:03;100044.03;;;-3.34;100.00
21728;BME280;11026;50.560;17.852;2023-04-06T01:31:31;100057.00;;;-3.33;100.00
21728;BME280;11026;50.560;17.852;2023-04-06T01:33:59;100052.81;;;-3.28;100.00
21728;BME280;11026;50.560;17.852;2023-04-06T01:36:33;100057.91;;;-3.31;100.00
21728;BME280;11026;50.560;17.852;2023-04-06T01:39:01;100049.91;;;-3.41;100.00
21728;BME280;11026;50.560;17.852;2023-04-06T01:41:29;100046.41;;;-3.45;100.00
21728;BME280;11026;50.560;17.852;2023-04-06T01:43:56;100039.63;;;-3.40;100.00
21728;BME280;11026;50.560;17.852;2023-04-06T01:46:24;100038.53;;;-3.50;100.00
21728;BME280;11026;50.560;17.852;2023-04-06T01:48:52;100042.75;;;-3.55;100.00
21728;BME280;11026;50.560;17.852;2023-04-06T01:51:21;100041.03;;;-3.54;100.00
21728;BME280;11026;50.560;17.852;2023-04-06T01:53:48;100039.22;;;-3.58;100.00
21728;BME280;11026;50.560;17.852;2023-04-06T01:56:16;100039.88;;;-3.68;100.00
21728;BME280;11026;50.560;17.852;2023-04-06T01:58:44;100041.13;;;-3.51;100.00
21728;BME280;11026;50.560;17.852;2023-04-06T02:01:11;100045.03;;;-3.28;100.00
21728;BME280;11026;50.560;17.852;2023-04-06T02:03:38;100046.06;;;-3.19;100.00
21728;BME280;11026;50.560;17.852;2023-04-06T02:06:06;100045.56;;;-3.44;100.00
21728;BME280;11026;50.560;17.852;2023-04-06T02:08:34;100050.53;;;-3.55;100.00
21728;BME280;11026;50.560;17.852;2023-04-06T02:11:02;100046.97;;;-3.60;100.00
21728;BME280;11026;50.560;17.852;2023-04-06T02:13:29;100048.38;;;-3.74;100.00
21728;BME280;11026;50.560;17.852;2023-04-06T02:15:57;100038.88;;;-3.75;100.00
21728;BME280;11026;50.560;17.852;2023-04-06T02:18:25;100038.81;;;-3.78;100.00
21728;BME280;11026;50.560;17.852;2023-04-06T02:20:52;100045.69;;;-3.79;100.00
21728;BME280;11026;50.560;17.852;2023-04-06T02:23:21;100050.97;;;-3.74;100.00
21728;BME280;11026;50.560;17.852;2023-04-06T02:25:48;100043.13;;;-3.77;100.00
21728;BME280;11026;50.560;17.852;2023-04-06T02:28:17;100042.06;;;-3.87;100.00
21728;BME280;11026;50.560;17.852;2023-04-06T02:30:44;100046.91;;;-3.63;100.00
21728;BME280;11026;50.560;17.852;2023-04-06T02:33:12;100039.47;;;-3.46;100.00
21728;BME280;11026;50.560;17.852;2023-04-06T02:35:39;100039.78;;;-3.31;100.00
21728;BME280;11026;50.560;17.852;2023-04-06T02:38:07;100034.00;;;-3.61;100.00
21728;BME280;11026;50.560;17.852;2023-04-06T02:40:34;100044.59;;;-3.90;100.00
21728;BME280;11026;50.560;17.852;2023-04-06T02:43:01;100040.75;;;-4.07;100.00
21728;BME280;11026;50.560;17.852;2023-04-06T02:45:29;100044.75;;;-4.20;100.00
21728;BME280;11026;50.560;17.852;2023-04-06T02:47:56;100044.03;;;-4.14;100.00
21728;BME280;11026;50.560;17.852;2023-04-06T02:50:26;100049.72;;;-3.91;100.00
21728;BME280;11026;50.560;17.852;2023-04-06T02:52:53;100045.44;;;-3.91;100.00
21728;BME280;11026;50.560;17.852;2023-04-06T02:55:21;100048.53;;;-4.06;100.00
21728;BME280;11026;50.560;17.852;2023-04-06T02:57:48;100044.94;;;-4.12;100.00
21728;BME280;11026;50.560;17.852;2023-04-06T03:00:17;100051.00;;;-4.10;100.00
21728;BME280;11026;50.560;17.852;2023-04-06T03:02:44;100045.88;;;-4.09;100.00
21728;BME280;11026;50.560;17.852;2023-04-06T03:05:12;100042.78;;;-3.92;100.00
21728;BME280;11026;50.560;17.852;2023-04-06T03:07:39;100041.53;;;-3.72;100.00
21728;BME280;11026;50.560;17.852;2023-04-06T03:10:08;100043.88;;;-3.83;100.00
21728;BME280;11026;50.560;17.852;2023-04-06T03:12:37;100046.31;;;-3.90;100.00
21728;BME280;11026;50.560;17.852;2023-04-06T03:15:05;100047.75;;;-4.02;100.00
21728;BME280;11026;50.560;17.852;2023-04-06T03:17:32;100055.25;;;-4.12;100.00
21728;BME280;11026;50.560;17.852;2023-04-06T03:20:00;100062.13;;;-4.14;100.00
21728;BME280;11026;50.560;17.852;2023-04-06T03:22:28;100053.25;;;-4.26;100.00
21728;BME280;11026;50.560;17.852;2023-04-06T03:24:56;100056.59;;;-4.30;100.00
21728;BME280;11026;50.560;17.852;2023-04-06T03:27:24;100059.56;;;-4.13;100.00
21728;BME280;11026;50.560;17.852;2023-04-06T03:29:53;100060.38;;;-4.15;100.00
21728;BME280;11026;50.560;17.852;2023-04-06T03:32:26;100058.72;;;-4.12;100.00
21728;BME280;11026;50.560;17.852;2023-04-06T03:34:53;100056.59;;;-4.30;100.00
21728;BME280;11026;50.560;17.852;2023-04-06T03:37:23;100055.66;;;-4.32;100.00
21728;BME280;11026;50.560;17.852;2023-04-06T03:39:51;100058.56;;;-4.19;100.00
21728;BME280;11026;50.560;17.852;2023-04-06T03:42:19;100059.91;;;-4.35;100.00
21728;BME280;11026;50.560;17.852;2023-04-06T03:44:47;100057.16;;;-4.41;100.00
21728;BME280;11026;50.560;17.852;2023-04-06T03:47:14;100058.41;;;-4.60;100.00
21728;BME280;11026;50.560;17.852;2023-04-06T03:49:44;100050.38;;;-4.38;100.00
21728;BME280;11026;50.560;17.852;2023-04-06T03:52:11;100052.09;;;-4.37;100.00
21728;BME280;11026;50.560;17.852;2023-04-06T03:54:39;100054.19;;;-4.22;100.00
21728;BME280;11026;50.560;17.852;2023-04-06T03:57:06;100054.38;;;-4.14;100.00
21728;BME280;11026;50.560;17.852;2023-04-06T03:59:34;100060.59;;;-4.06;100.00
21728;BME280;11026;50.560;17.852;2023-04-06T04:02:01;100055.25;;;-4.12;100.00
21728;BME280;11026;50.560;17.852;2023-04-06T04:04:29;100064.63;;;-4.17;100.00
21728;BME280;11026;50.560;17.852;2023-04-06T04:06:56;100064.34;;;-4.30;100.00
21728;BME280;11026;50.560;17.852;2023-04-06T04:09:23;100057.06;;;-4.46;100.00
21728;BME280;11026;50.560;17.852;2023-04-06T04:11:52;100072.06;;;-4.64;100.00
21728;BME280;11026;50.560;17.852;2023-04-06T04:14:20;100067.50;;;-4.41;100.00
21728;BME280;11026;50.560;17.852;2023-04-06T04:16:47;100066.06;;;-4.29;100.00
21728;BME280;11026;50.560;17.852;2023-04-06T04:19:16;100072.44;;;-4.51;100.00
21728;BME280;11026;50.560;17.852;2023-04-06T04:21:45;100070.66;;;-4.52;100.00
21728;BME280;11026;50.560;17.852;2023-04-06T04:24:13;100075.34;;;-4.37;100.00
21728;BME280;11026;50.560;17.852;2023-04-06T04:26:40;100071.06;;;-4.36;100.00
21728;BME280;11026;50.560;17.852;2023-04-06T04:29:09;100064.06;;;-4.40;100.00
21728;BME280;11026;50.560;17.852;2023-04-06T04:31:36;100066.16;;;-4.60;100.00
21728;BME280;11026;50.560;17.852;2023-04-06T04:34:05;100061.47;;;-4.75;100.00
21728;BME280;11026;50.560;17.852;2023-04-06T04:36:34;100062.91;;;-4.86;100.00
21728;BME280;11026;50.560;17.852;2023-04-06T04:39:02;100066.28;;;-4.89;100.00
21728;BME280;11026;50.560;17.852;2023-04-06T04:41:29;100078.53;;;-4.80;100.00
21728;BME280;11026;50.560;17.852;2023-04-06T04:43:58;100071.66;;;-4.81;100.00
21728;BME280;11026;50.560;17.852;2023-04-06T04:46:27;100070.59;;;-4.88;100.00
21728;BME280;11026;50.560;17.852;2023-04-06T04:48:56;100072.41;;;-4.84;100.00
21728;BME280;11026;50.560;17.852;2023-04-06T04:51:24;100073.47;;;-4.77;100.00
21728;BME280;11026;50.560;17.852;2023-04-06T04:53:53;100089.06;;;-4.73;100.00
21728;BME280;11026;50.560;17.852;2023-04-06T04:56:21;100084.34;;;-4.56;100.00
21728;BME280;11026;50.560;17.852;2023-04-06T04:58:49;100087.13;;;-4.48;100.00
21728;BME280;11026;50.560;17.852;2023-04-06T05:01:17;100082.41;;;-4.30;100.00
21728;BME280;11026;50.560;17.852;2023-04-06T05:03:44;100085.19;;;-4.22;100.00
21728;BME280;11026;50.560;17.852;2023-04-06T05:06:12;100082.50;;;-4.27;100.00
21728;BME280;11026;50.560;17.852;2023-04-06T05:08:40;100084.88;;;-4.34;100.00
21728;BME280;11026;50.560;17.852;2023-04-06T05:11:09;100089.81;;;-4.43;100.00
21728;BME280;11026;50.560;17.852;2023-04-06T05:13:36;100080.97;;;-4.18;100.00
21728;BME280;11026;50.560;17.852;2023-04-06T05:16:06;100081.25;;;-4.06;100.00
21728;BME280;11026;50.560;17.852;2023-04-06T05:18:34;100091.59;;;-4.06;100.00
21728;BME280;11026;50.560;17.852;2023-04-06T05:21:03;100094.19;;;-4.06;100.00
21728;BME280;11026;50.560;17.852;2023-04-06T05:23:30;100089.03;;;-4.05;100.00
21728;BME280;11026;50.560;17.852;2023-04-06T05:25:58;100084.44;;;-4.16;100.00
21728;BME280;11026;50.560;17.852;2023-04-06T05:28:25;100087.28;;;-4.06;100.00
21728;BME280;11026;50.560;17.852;2023-04-06T05:30:55;100089.78;;;-4.09;100.00
21728;BME280;11026;50.560;17.852;2023-04-06T05:33:24;100092.72;;;-3.95;100.00
21728;BME280;11026;50.560;17.852;2023-04-06T05:35:52;100085.41;;;-4.13;100.00
21728;BME280;11026;50.560;17.852;2023-04-06T05:38:19;100090.44;;;-4.19;100.00
21728;BME280;11026;50.560;17.852;2023-04-06T05:40:47;100086.25;;;-4.12;100.00
21728;BME280;11026;50.560;17.852;2023-04-06T05:43:15;100085.84;;;-3.94;100.00
21728;BME280;11026;50.560;17.852;2023-04-06T05:45:44;100084.44;;;-3.80;100.00
21728;BME280;11026;50.560;17.852;2023-04-06T05:48:12;100082.91;;;-3.72;100.00
21728;BME280;11026;50.560;17.852;2023-04-06T05:50:39;100077.88;;;-3.64;100.00
21728;BME280;11026;50.560;17.852;2023-04-06T05:53:07;100081.28;;;-3.67;100.00
21728;BME280;11026;50.560;17.852;2023-04-06T05:55:34;100073.78;;;-3.56;100.00
21728;BME280;11026;50.560;17.852;2023-04-06T05:58:02;100082.50;;;-3.51;100.00
21728;BME280;11026;50.560;17.852;2023-04-06T06:00:30;100089.75;;;-3.33;100.00
21728;BME280;11026;50.560;17.852;2023-04-06T06:03:01;100078.84;;;-3.18;100.00
21728;BME280;11026;50.560;17.852;2023-04-06T06:05:37;100081.75;;;-3.03;100.00
21728;BME280;11026;50.560;17.852;2023-04-06T06:08:04;100073.31;;;-2.93;100.00
21728;BME280;11026;50.560;17.852;2023-04-06T06:10:31;100075.34;;;-2.77;100.00
21728;BME280;11026;50.560;17.852;2023-04-06T06:12:58;100077.38;;;-2.59;100.00
21728;BME280;11026;50.560;17.852;2023-04-06T06:15:26;100070.88;;;-2.34;100.00
21728;BME280;11026;50.560;17.852;2023-04-06T06:17:54;100065.97;;;-2.18;100.00
21728;BME280;11026;50.560;17.852;2023-04-06T06:20:21;100073.22;;;-1.96;100.00
21728;BME280;11026;50.560;17.852;2023-04-06T06:22:50;100074.31;;;-1.80;100.00
21728;BME280;11026;50.560;17.852;2023-04-06T06:25:17;100077.03;;;-1.73;100.00
21728;BME280;11026;50.560;17.852;2023-04-06T06:27:44;100074.63;;;-1.59;100.00
21728;BME280;11026;50.560;17.852;2023-04-06T06:30:12;100073.09;;;-1.43;100.00
21728;BME280;11026;50.560;17.852;2023-04-06T06:32:39;100070.69;;;-1.31;100.00
21728;BME280;11026;50.560;17.852;2023-04-06T06:35:07;100072.63;;;-1.13;100.00
21728;BME280;11026;50.560;17.852;2023-04-06T06:37:34;100061.59;;;-0.93;100.00
21728;BME280;11026;50.560;17.852;2023-04-06T06:40:02;100065.09;;;-0.88;100.00
21728;BME280;11026;50.560;17.852;2023-04-06T06:42:36;100070.47;;;-0.75;100.00
21728;BME280;11026;50.560;17.852;2023-04-06T06:45:04;100075.78;;;-0.61;100.00
21728;BME280;11026;50.560;17.852;2023-04-06T06:47:31;100067.25;;;-0.46;99.83
21728;BME280;11026;50.560;17.852;2023-04-06T06:49:59;100063.94;;;-0.31;99.50
21728;BME280;11026;50.560;17.852;2023-04-06T06:52:26;100072.69;;;-0.18;99.23
21728;BME280;11026;50.560;17.852;2023-04-06T06:54:55;100074.53;;;-0.05;98.59
21728;BME280;11026;50.560;17.852;2023-04-06T06:57:26;100078.94;;;0.05;98.02
21728;BME280;11026;50.560;17.852;2023-04-06T06:59:53;100073.84;;;0.23;96.90
21728;BME280;11026;50.560;17.852;2023-04-06T07:02:20;100074.75;;;0.26;95.59
21728;BME280;11026;50.560;17.852;2023-04-06T07:04:48;100078.34;;;0.44;94.27
21728;BME280;11026;50.560;17.852;2023-04-06T07:07:16;100075.78;;;0.58;92.77
21728;BME280;11026;50.560;17.852;2023-04-06T07:09:44;100077.59;;;0.68;91.61
21728;BME280;11026;50.560;17.852;2023-04-06T07:12:11;100078.50;;;0.81;91.09
21728;BME280;11026;50.560;17.852;2023-04-06T07:14:38;100079.44;;;0.97;89.97
21728;BME280;11026;50.560;17.852;2023-04-06T07:17:06;100076.88;;;1.12;89.13
21728;BME280;11026;50.560;17.852;2023-04-06T07:19:33;100083.00;;;1.30;88.11
21728;BME280;11026;50.560;17.852;2023-04-06T07:22:00;100081.31;;;1.48;86.76
21728;BME280;11026;50.560;17.852;2023-04-06T07:24:29;100083.06;;;1.60;84.45
21728;BME280;11026;50.560;17.852;2023-04-06T07:26:58;100077.00;;;1.70;82.99
21728;BME280;11026;50.560;17.852;2023-04-06T07:29:26;100076.09;;;1.85;82.32
21728;BME280;11026;50.560;17.852;2023-04-06T07:31:55;100086.56;;;1.91;80.78
21728;BME280;11026;50.560;17.852;2023-04-06T07:34:24;100085.66;;;2.02;80.29
21728;BME280;11026;50.560;17.852;2023-04-06T07:36:51;100089.13;;;2.10;80.09
21728;BME280;11026;50.560;17.852;2023-04-06T07:39:20;100082.16;;;2.21;79.97
21728;BME280;11026;50.560;17.852;2023-04-06T07:41:48;100083.91;;;2.39;79.25
21728;BME280;11026;50.560;17.852;2023-04-06T07:44:16;100086.50;;;2.39;78.90
21728;BME280;11026;50.560;17.852;2023-04-06T07:46:44;100090.81;;;2.58;79.17
21728;BME280;11026;50.560;17.852;2023-04-06T07:49:11;100087.25;;;2.76;78.76
21728;BME280;11026;50.560;17.852;2023-04-06T07:51:39;100083.75;;;2.86;77.31
21728;BME280;11026;50.560;17.852;2023-04-06T07:54:06;100086.34;;;2.85;74.05
21728;BME280;11026;50.560;17.852;2023-04-06T07:56:34;100084.63;;;2.84;73.45
21728;BME280;11026;50.560;17.852;2023-04-06T07:59:01;100084.59;;;2.98;73.81
21728;BME280;11026;50.560;17.852;2023-04-06T08:01:29;100083.63;;;3.14;72.61
21728;BME280;11026;50.560;17.852;2023-04-06T08:03:57;100087.09;;;3.17;71.09
21728;BME280;11026;50.560;17.852;2023-04-06T08:06:25;100085.28;;;3.30;70.22
21728;BME280;11026;50.560;17.852;2023-04-06T08:08:53;100087.84;;;3.38;68.73
21728;BME280;11026;50.560;17.852;2023-04-06T08:11:21;100081.66;;;3.51;68.82
21728;BME280;11026;50.560;17.852;2023-04-06T08:13:49;100083.28;;;3.67;67.96
21728;BME280;11026;50.560;17.852;2023-04-06T08:16:17;100087.59;;;3.78;67.47
21728;BME280;11026;50.560;17.852;2023-04-06T08:18:46;100078.69;;;4.00;67.01
21728;BME280;11026;50.560;17.852;2023-04-06T08:21:14;100083.69;;;4.28;66.94
21728;BME280;11026;50.560;17.852;2023-04-06T08:23:42;100074.69;;;4.50;64.91
21728;BME280;11026;50.560;17.852;2023-04-06T08:26:10;100078.06;;;4.64;63.17
21728;BME280;11026;50.560;17.852;2023-04-06T08:28:37;100074.41;;;4.75;61.92
21728;BME280;11026;50.560;17.852;2023-04-06T08:31:06;100073.47;;;4.83;61.20
21728;BME280;11026;50.560;17.852;2023-04-06T08:33:33;100074.25;;;4.91;61.18
21728;BME280;11026;50.560;17.852;2023-04-06T08:36:10;100071.69;;;4.85;60.16
21728;BME280;11026;50.560;17.852;2023-04-06T08:38:39;100069.97;;;4.84;60.73
21728;BME280;11026;50.560;17.852;2023-04-06T08:41:13;100068.94;;;4.96;59.03
21728;BME280;11026;50.560;17.852;2023-04-06T08:43:48;100074.22;;;4.93;58.33
21728;BME280;11026;50.560;17.852;2023-04-06T08:46:17;100066.09;;;5.13;59.69
21728;BME280;11026;50.560;17.852;2023-04-06T08:48:45;100071.25;;;5.19;58.41
21728;BME280;11026;50.560;17.852;2023-04-06T08:51:13;100066.78;;;5.26;58.72
21728;BME280;11026;50.560;17.852;2023-04-06T08:53:41;100070.22;;;5.31;58.16
21728;BME280;11026;50.560;17.852;2023-04-06T08:56:09;100062.94;;;5.51;56.25
21728;BME280;11026;50.560;17.852;2023-04-06T08:58:39;100064.47;;;5.64;56.47
21728;BME280;11026;50.560;17.852;2023-04-06T09:01:09;100066.69;;;5.92;55.43
21728;BME280;11026;50.560;17.852;2023-04-06T09:03:40;100056.84;;;6.06;54.52
21728;BME280;11026;50.560;17.852;2023-04-06T09:06:08;100066.53;;;6.03;53.66
21728;BME280;11026;50.560;17.852;2023-04-06T09:08:38;100064.88;;;5.96;52.55
21728;BME280;11026;50.560;17.852;2023-04-06T09:11:06;100064.13;;;5.86;53.12
21728;BME280;11026;50.560;17.852;2023-04-06T09:13:49;100063.81;;;6.07;55.12
21728;BME280;11026;50.560;17.852;2023-04-06T09:16:17;100063.53;;;6.23;54.29
21728;BME280;11026;50.560;17.852;2023-04-06T09:18:46;100063.41;;;6.29;53.64
21728;BME280;11026;50.560;17.852;2023-04-06T09:21:17;100064.00;;;6.46;53.60
21728;BME280;11026;50.560;17.852;2023-04-06T09:23:57;100054.63;;;6.76;52.88
21728;BME280;11026;50.560;17.852;2023-04-06T09:26:25;100052.44;;;6.97;50.71
21728;BME280;11026;50.560;17.852;2023-04-06T09:28:57;100051.69;;;7.33;52.17
21728;BME280;11026;50.560;17.852;2023-04-06T09:31:26;100048.94;;;7.38;51.74
21728;BME280;11026;50.560;17.852;2023-04-06T09:33:54;100040.13;;;7.39;50.67
21728;BME280;11026;50.560;17.852;2023-04-06T09:36:34;100036.19;;;7.20;51.02
21728;BME280;11026;50.560;17.852;2023-04-06T09:39:04;100050.22;;;6.77;50.44
21728;BME280;11026;50.560;17.852;2023-04-06T09:41:34;100037.94;;;6.79;51.68
21728;BME280;11026;50.560;17.852;2023-04-06T09:44:10;100034.28;;;6.86;51.57
21728;BME280;11026;50.560;17.852;2023-04-06T09:46:40;100034.94;;;6.54;49.21
21728;BME280;11026;50.560;17.852;2023-04-06T09:49:27;100038.47;;;6.51;50.42
21728;BME280;11026;50.560;17.852;2023-04-06T09:52:06;100033.53;;;6.79;50.00
21728;BME280;11026;50.560;17.852;2023-04-06T09:54:37;100039.25;;;7.00;48.14
21728;BME280;11026;50.560;17.852;2023-04-06T10:00:13;100031.94;;;7.12;48.65
21728;BME280;11026;50.560;17.852;2023-04-06T10:02:56;100039.13;;;7.04;47.60
21728;BME280;11026;50.560;17.852;2023-04-06T10:05:37;100036.50;;;7.04;47.60
21728;BME280;11026;50.560;17.852;2023-04-06T10:08:10;100030.63;;;7.32;48.23
21728;BME280;11026;50.560;17.852;2023-04-06T10:10:38;100027.28;;;7.62;48.17
21728;BME280;11026;50.560;17.852;2023-04-06T10:13:05;100018.53;;;7.98;46.36
21728;BME280;11026;50.560;17.852;2023-04-06T10:15:34;100012.59;;;8.22;46.95
21728;BME280;11026;50.560;17.852;2023-04-06T10:18:02;100011.47;;;8.65;46.20
21728;BME280;11026;50.560;17.852;2023-04-06T10:21:08;100006.81;;;9.32;44.62
21728;BME280;11026;50.560;17.852;2023-04-06T10:23:40;100001.09;;;9.99;44.31
21728;BME280;11026;50.560;17.852;2023-04-06T10:26:14;100008.91;;;10.29;44.66
21728;BME280;11026;50.560;17.852;2023-04-06T10:28:46;99999.53;;;10.92;43.65
21728;BME280;11026;50.560;17.852;2023-04-06T10:31:14;99998.78;;;10.89;42.12
21728;BME280;11026;50.560;17.852;2023-04-06T10:33:53;100003.78;;;10.49;41.98
21728;BME280;11026;50.560;17.852;2023-04-06T10:36:24;100005.09;;;10.61;43.10
21728;BME280;11026;50.560;17.852;2023-04-06T10:39:04;100004.34;;;10.34;42.34
21728;BME280;11026;50.560;17.852;2023-04-06T10:41:41;99995.81;;;10.24;42.65
21728;BME280;11026;50.560;17.852;2023-04-06T10:44:23;99989.19;;;10.63;42.10
21728;BME280;11026;50.560;17.852;2023-04-06T10:46:58;99991.88;;;11.52;42.41
21728;BME280;11026;50.560;17.852;2023-04-06T10:49:29;99982.81;;;11.79;39.34
21728;BME280;11026;50.560;17.852;2023-04-06T10:51:57;99980.72;;;11.88;40.99
21728;BME280;11026;50.560;17.852;2023-04-06T10:54:26;99987.44;;;11.74;41.70
21728;BME280;11026;50.560;17.852;2023-04-06T10:56:56;99976.53;;;11.82;41.36
21728;BME280;11026;50.560;17.852;2023-04-06T10:59:23;99983.28;;;11.69;39.83
21728;BME280;11026;50.560;17.852;2023-04-06T11:01:53;99972.41;;;11.75;39.85
21728;BME280;11026;50.560;17.852;2023-04-06T11:04:22;99980.81;;;12.06;40.51
21728;BME280;11026;50.560;17.852;2023-04-06T11:06:50;99978.16;;;12.27;40.13
21728;BME280;11026;50.560;17.852;2023-04-06T11:09:29;99968.69;;;12.61;39.80
21728;BME280;11026;50.560;17.852;2023-04-06T11:11:58;99967.91;;;11.77;40.05
21728;BME280;11026;50.560;17.852;2023-04-06T11:14:25;99975.44;;;11.22;40.84
21728;BME280;11026;50.560;17.852;2023-04-06T11:16:53;99971.75;;;11.48;40.82
21728;BME280;11026;50.560;17.852;2023-04-06T11:19:21;99961.13;;;11.70;38.52
21728;BME280;11026;50.560;17.852;2023-04-06T11:21:48;99958.91;;;11.81;39.64
21728;BME280;11026;50.560;17.852;2023-04-06T11:24:23;99968.78;;;11.55;40.34
21728;BME280;11026;50.560;17.852;2023-04-06T11:26:58;99953.38;;;11.43;40.43
21728;BME280;11026;50.560;17.852;2023-04-06T11:29:29;99951.56;;;11.01;41.34
21728;BME280;11026;50.560;17.852;2023-04-06T11:32:04;99945.56;;;10.73;40.45
21728;BME280;11026;50.560;17.852;2023-04-06T11:34:38;99942.59;;;10.58;41.02
21728;BME280;11026;50.560;17.852;2023-04-06T11:37:11;99940.97;;;11.01;40.74
21728;BME280;11026;50.560;17.852;2023-04-06T11:39:50;99934.31;;;11.35;40.48
21728;BME280;11026;50.560;17.852;2023-04-06T11:42:27;99923.31;;;11.66;39.05
21728;BME280;11026;50.560;17.852;2023-04-06T11:44:59;99930.38;;;12.08;41.26
21728;BME280;11026;50.560;17.852;2023-04-06T11:47:36;99933.72;;;12.32;40.24
21728;BME280;11026;50.560;17.852;2023-04-06T11:50:13;99921.94;;;12.19;39.56
21728;BME280;11026;50.560;17.852;2023-04-06T11:52:42;99915.91;;;12.15;38.64
21728;BME280;11026;50.560;17.852;2023-04-06T11:55:17;99908.53;;;12.22;38.51
21728;BME280;11026;50.560;17.852;2023-04-06T11:57:45;99902.16;;;11.22;39.83
21728;BME280;11026;50.560;17.852;2023-04-06T12:00:12;99921.16;;;10.88;40.06
21728;BME280;11026;50.560;17.852;2023-04-06T12:02:45;99913.38;;;11.29;41.41
21728;BME280;11026;50.560;17.852;2023-04-06T12:05:13;99914.41;;;11.67;41.08
21728;BME280;11026;50.560;17.852;2023-04-06T12:07:40;99902.97;;;12.47;39.82
21728;BME280;11026;50.560;17.852;2023-04-06T12:10:07;99898.31;;;12.90;39.67
21728;BME280;11026;50.560;17.852;2023-04-06T12:12:35;99896.53;;;12.52;38.45
21728;BME280;11026;50.560;17.852;2023-04-06T12:15:04;99892.75;;;12.19;40.44
21728;BME280;11026;50.560;17.852;2023-04-06T12:17:38;99910.31;;;11.60;39.86
21728;BME280;11026;50.560;17.852;2023-04-06T12:20:06;99900.72;;;11.57;39.24
21728;BME280;11026;50.560;17.852;2023-04-06T12:22:50;99897.78;;;11.86;39.04
21728;BME280;11026;50.560;17.852;2023-04-06T12:25:17;99900.81;;;11.34;39.33
21728;BME280;11026;50.560;17.852;2023-04-06T12:27:44;99906.34;;;11.06;39.77
21728;BME280;11026;50.560;17.852;2023-04-06T12:30:13;99907.53;;;11.21;39.55
21728;BME280;11026;50.560;17.852;2023-04-06T12:32:40;99895.28;;;11.61;41.23
21728;BME280;11026;50.560;17.852;2023-04-06T12:35:09;99898.41;;;12.11;40.20
21728;BME280;11026;50.560;17.852;2023-04-06T12:37:39;99894.69;;;11.74;39.43
21728;BME280;11026;50.560;17.852;2023-04-06T12:40:07;99898.69;;;11.42;39.59
21728;BME280;11026;50.560;17.852;2023-04-06T12:42:38;99901.19;;;11.03;39.87
21728;BME280;11026;50.560;17.852;2023-04-06T12:45:08;99890.59;;;10.81;40.47
21728;BME280;11026;50.560;17.852;2023-04-06T12:47:36;99888.09;;;10.76;41.19
21728;BME280;11026;50.560;17.852;2023-04-06T12:50:05;99892.69;;;10.49;41.71
21728;BME280;11026;50.560;17.852;2023-04-06T12:52:33;99882.81;;;10.31;41.79